Rib Lake, WI (54470)

3:09 AM CST on February 07, 2016 (GMT -0600)
APRSWXNET | | Change Station
CLOSE
Current Station
Personal Weather Station
Location: Ogema, WI
Elevation: 1469 ft
Nearby Weather Stations

Elev 1469 ft 45.40 °N, 90.20 °W | Updated 19 minutes ago

Overcast
Overcast
28 °F
Feels Like 28 °F
N
1
Wind Variable Wind from SW
Gusts 6.0 mph

Today
High -- | Low -- °F
--% Chance of Precip.
Yesterday
High -- | Low -- °F
Precip. -- in
Pressure 29.69 in
Visibility 10.0 miles
Clouds Overcast 900 ft
Windchill 28 °F
Dew Point 26 °F
Humidity 93%
Rainfall in
Snow Depth Not available.
7:14 AM 5:16 PM
Waning Crescent, 2% visible
METAR KMDZ 070855Z AUTO 22008KT 10SM OVC009 M01/M02 A2969 RMK AO2 T10131022
Pressure 29.69 in
Visibility 10.0 miles
Clouds Overcast 900 ft
Windchill 28 °F
Dew Point 26 °F
Humidity 93%
Rainfall in
Snow Depth Not available.
7:14 AM 5:16 PM
Waning Crescent, 2% visible
METAR KMDZ 070855Z AUTO 22008KT 10SM OVC009 M01/M02 A2969 RMK AO2 T10131022

10-Day Weather Forecast

Almanac

Astronomy

Feb. 07, 2016 Rise Set
Actual Time
Civil Twilight
Nautical Twilight
Astronomical Twilight
Moon
Length of Visible Light
Length of Day
Tomorrow will be .
, % of the Moon is Illuminated

Today's Extremes

State Highs State Lows

Community

WunderPhotos

Upload Photos

1,891,171 photos uploaded!

WunderBlog® & News

Nearby

Air Quality

  Air Quality AQ Index Pollutant
Not available.

Snow Depth

Station Depth Elevation

Earthquake Activity

City Distance Mag. Time & Date
Minimum magnitude displayed is 2.5.

Coastal Water Temperatures

Place Temperature

Stations

Nearby Weather Stations

Station Location Temp. Windchill Dew Point Humidity Wind Precip. Elev Updated Type
                   

Watches & Warnings

There are currently no watches in effect.